Terminal Aerodrome Forecast
Issued by NWS Jackson, KY

Home | Current Version | Previous Version | Text Only | Print | Product List | Glossary On
Versions: 1 2 3 4 5 6 7 8 9 10 11
553
FTUS43 KJKL 031123
TAFLOZ
TAF
KLOZ 031123Z 0312/0412 22010G20KT 6SM -SHRA SCT015 OVC040
     FM031500 24010G18KT P6SM VCSH BKN035
     FM031700 25012G20KT P6SM SCT035
     FM040000 27008KT P6SM SKC
     FM040700 30007KT P6SM BKN025=

USA.gov is the U.S. government's official web portal to all federal, state and local government web resources and services.